RJTY/OKO METAR and TAF weather

Enter ICAO airport designator
Station Type Date Time Source
RJTY METAR 2021/09/28 17:26 UTC NOAA

RJTY 281726Z AUTO 00000KT 10SM SCT014 BKN050 19/16 A3008 RMK AO2 SLP185 FZRANO $


Station Type Date Time Source
RJTY Decoded METAR 2021/09/28 17:26 UTC NOAA

Yokota Ab, Japan (RJTY) 35-45N 139-21E 142M
Sep 28, 2021 - 01:26 PM EDT / 2021.09.28 1726 UTC
Wind: Calm:0
Visibility: 10 mile(s):0
Sky conditions: mostly cloudy
Temperature: 66 F (19 C)
Dew Point: 60 F (16 C)
Relative Humidity: 82%
Pressure (altimeter): 30.08 in. Hg (1018 hPa)
ob: RJTY 281726Z AUTO 00000KT 10SM SCT014 BKN050 19/16 A3008 RMK AO2 SLP185 FZRANO
cycle: 17

Station Type Date Time Source
RJTY TAF 2021/09/28 13:03 UTC NOAA

TAF TAF RJTY 281300Z 2813/2919 VRB06KT 9999 SCT030 BKN060 QNH3006INS
BECMG 2900/2901 04009KT 9999 BKN030 QNH3001INS
BECMG 2903/2904 14009KT 9999 SCT035 QNH2997INS
BECMG 2911/2912 VRB06KT 9999 BKN030 QNH2994INS TX26/2905Z TN16/2821Z LAST NO
AMDS AFT 2813 NEXT 2821

Example: see airport list